sensor_id;sensor_type;location;lat;lon;timestamp;P1;durP1;ratioP1;P2;durP2;ratioP2
22284;SDS011;11311;52.192;20.900;2022-11-14T00:00:56;32.92;;;22.20;;
22284;SDS011;11311;52.192;20.900;2022-11-14T00:03:43;34.30;;;19.33;;
22284;SDS011;11311;52.192;20.900;2022-11-14T00:06:32;39.90;;;23.08;;
22284;SDS011;11311;52.192;20.900;2022-11-14T00:09:23;41.65;;;23.00;;
22284;SDS011;11311;52.192;20.900;2022-11-14T00:12:10;35.05;;;22.25;;
22284;SDS011;11311;52.192;20.900;2022-11-14T00:14:58;29.85;;;19.83;;
22284;SDS011;11311;52.192;20.900;2022-11-14T00:17:44;33.33;;;23.05;;
22284;SDS011;11311;52.192;20.900;2022-11-14T00:20:32;31.77;;;20.23;;
22284;SDS011;11311;52.192;20.900;2022-11-14T00:23:20;29.10;;;19.05;;
22284;SDS011;11311;52.192;20.900;2022-11-14T00:26:07;26.10;;;18.70;;
22284;SDS011;11311;52.192;20.900;2022-11-14T00:28:54;24.05;;;18.25;;
22284;SDS011;11311;52.192;20.900;2022-11-14T00:31:41;31.60;;;19.48;;
22284;SDS011;11311;52.192;20.900;2022-11-14T00:34:29;30.35;;;18.17;;
22284;SDS011;11311;52.192;20.900;2022-11-14T00:37:16;24.10;;;16.50;;
22284;SDS011;11311;52.192;20.900;2022-11-14T00:40:05;28.23;;;18.85;;
22284;SDS011;11311;52.192;20.900;2022-11-14T00:42:53;29.75;;;18.38;;
22284;SDS011;11311;52.192;20.900;2022-11-14T00:45:41;30.08;;;18.88;;
22284;SDS011;11311;52.192;20.900;2022-11-14T00:48:28;27.75;;;18.30;;
22284;SDS011;11311;52.192;20.900;2022-11-14T00:51:16;29.48;;;18.30;;
22284;SDS011;11311;52.192;20.900;2022-11-14T00:54:03;27.90;;;19.10;;
22284;SDS011;11311;52.192;20.900;2022-11-14T00:56:51;29.05;;;19.80;;
22284;SDS011;11311;52.192;20.900;2022-11-14T00:59:38;31.05;;;20.13;;
22284;SDS011;11311;52.192;20.900;2022-11-14T01:02:26;30.10;;;19.73;;
22284;SDS011;11311;52.192;20.900;2022-11-14T01:05:13;35.05;;;23.52;;
22284;SDS011;11311;52.192;20.900;2022-11-14T01:08:00;33.40;;;21.83;;
22284;SDS011;11311;52.192;20.900;2022-11-14T01:10:48;33.00;;;20.27;;
22284;SDS011;11311;52.192;20.900;2022-11-14T01:13:38;37.58;;;22.15;;
22284;SDS011;11311;52.192;20.900;2022-11-14T01:16:25;37.00;;;22.00;;
22284;SDS011;11311;52.192;20.900;2022-11-14T01:19:12;37.63;;;23.13;;
22284;SDS011;11311;52.192;20.900;2022-11-14T01:21:59;40.80;;;20.90;;
22284;SDS011;11311;52.192;20.900;2022-11-14T01:24:50;36.33;;;15.85;;
22284;SDS011;11311;52.192;20.900;2022-11-14T01:27:39;30.60;;;18.20;;
22284;SDS011;11311;52.192;20.900;2022-11-14T01:30:27;39.97;;;24.80;;
22284;SDS011;11311;52.192;20.900;2022-11-14T01:33:14;34.58;;;21.38;;
22284;SDS011;11311;52.192;20.900;2022-11-14T01:36:01;34.55;;;20.35;;
22284;SDS011;11311;52.192;20.900;2022-11-14T01:38:50;41.88;;;23.27;;
22284;SDS011;11311;52.192;20.900;2022-11-14T01:41:38;36.10;;;21.15;;
22284;SDS011;11311;52.192;20.900;2022-11-14T01:44:40;37.20;;;22.77;;
22284;SDS011;11311;52.192;20.900;2022-11-14T01:47:31;34.70;;;21.13;;
22284;SDS011;11311;52.192;20.900;2022-11-14T01:50:19;41.35;;;24.73;;
22284;SDS011;11311;52.192;20.900;2022-11-14T01:53:05;38.85;;;21.42;;
22284;SDS011;11311;52.192;20.900;2022-11-14T01:55:53;35.90;;;22.13;;
22284;SDS011;11311;52.192;20.900;2022-11-14T01:58:43;37.00;;;24.00;;
22284;SDS011;11311;52.192;20.900;2022-11-14T02:01:34;38.63;;;23.77;;
22284;SDS011;11311;52.192;20.900;2022-11-14T02:04:25;37.78;;;16.10;;
22284;SDS011;11311;52.192;20.900;2022-11-14T02:07:14;38.53;;;21.63;;
22284;SDS011;11311;52.192;20.900;2022-11-14T02:10:04;52.97;;;29.08;;
22284;SDS011;11311;52.192;20.900;2022-11-14T02:12:54;47.45;;;27.10;;
22284;SDS011;11311;52.192;20.900;2022-11-14T02:15:41;50.70;;;23.88;;
22284;SDS011;11311;52.192;20.900;2022-11-14T02:18:28;54.45;;;29.13;;
22284;SDS011;11311;52.192;20.900;2022-11-14T02:21:17;56.05;;;30.00;;
22284;SDS011;11311;52.192;20.900;2022-11-14T02:24:06;44.90;;;25.40;;
22284;SDS011;11311;52.192;20.900;2022-11-14T02:29:41;49.22;;;26.00;;
22284;SDS011;11311;52.192;20.900;2022-11-14T02:32:29;45.80;;;23.17;;
22284;SDS011;11311;52.192;20.900;2022-11-14T02:35:36;51.90;;;29.45;;
22284;SDS011;11311;52.192;20.900;2022-11-14T02:38:24;30.17;;;16.88;;
22284;SDS011;11311;52.192;20.900;2022-11-14T02:41:11;36.88;;;21.23;;
22284;SDS011;11311;52.192;20.900;2022-11-14T02:43:58;37.30;;;23.08;;
22284;SDS011;11311;52.192;20.900;2022-11-14T02:46:45;37.78;;;23.20;;
22284;SDS011;11311;52.192;20.900;2022-11-14T02:49:33;34.92;;;21.42;;
22284;SDS011;11311;52.192;20.900;2022-11-14T02:52:20;36.33;;;20.98;;
22284;SDS011;11311;52.192;20.900;2022-11-14T02:55:08;34.58;;;19.05;;
22284;SDS011;11311;52.192;20.900;2022-11-14T02:57:56;45.58;;;24.15;;
22284;SDS011;11311;52.192;20.900;2022-11-14T03:00:43;39.28;;;23.77;;
22284;SDS011;11311;52.192;20.900;2022-11-14T03:03:50;38.42;;;21.40;;
22284;SDS011;11311;52.192;20.900;2022-11-14T03:06:37;32.70;;;20.75;;
22284;SDS011;11311;52.192;20.900;2022-11-14T03:09:24;29.15;;;17.20;;
22284;SDS011;11311;52.192;20.900;2022-11-14T03:12:15;39.33;;;22.80;;
22284;SDS011;11311;52.192;20.900;2022-11-14T03:15:03;34.55;;;19.45;;
22284;SDS011;11311;52.192;20.900;2022-11-14T03:17:51;33.92;;;21.50;;
22284;SDS011;11311;52.192;20.900;2022-11-14T03:20:38;31.75;;;15.68;;
22284;SDS011;11311;52.192;20.900;2022-11-14T03:23:25;24.70;;;15.52;;
22284;SDS011;11311;52.192;20.900;2022-11-14T03:26:13;27.52;;;18.40;;
22284;SDS011;11311;52.192;20.900;2022-11-14T03:29:01;28.50;;;18.80;;
22284;SDS011;11311;52.192;20.900;2022-11-14T03:31:48;26.33;;;16.85;;
22284;SDS011;11311;52.192;20.900;2022-11-14T03:34:35;22.80;;;14.55;;
22284;SDS011;11311;52.192;20.900;2022-11-14T03:37:22;21.60;;;15.70;;
22284;SDS011;11311;52.192;20.900;2022-11-14T03:40:10;25.02;;;13.93;;
22284;SDS011;11311;52.192;20.900;2022-11-14T03:42:58;21.88;;;14.88;;
22284;SDS011;11311;52.192;20.900;2022-11-14T03:45:47;15.27;;;9.25;;
22284;SDS011;11311;52.192;20.900;2022-11-14T03:48:34;19.13;;;10.05;;
22284;SDS011;11311;52.192;20.900;2022-11-14T03:51:22;22.73;;;14.02;;
22284;SDS011;11311;52.192;20.900;2022-11-14T03:54:08;21.83;;;15.20;;
22284;SDS011;11311;52.192;20.900;2022-11-14T03:56:55;20.02;;;13.93;;
22284;SDS011;11311;52.192;20.900;2022-11-14T03:59:43;21.02;;;13.90;;
22284;SDS011;11311;52.192;20.900;2022-11-14T04:02:31;17.98;;;11.30;;
22284;SDS011;11311;52.192;20.900;2022-11-14T04:05:18;19.73;;;11.75;;
22284;SDS011;11311;52.192;20.900;2022-11-14T04:08:05;22.17;;;13.02;;
22284;SDS011;11311;52.192;20.900;2022-11-14T04:10:52;19.55;;;13.60;;
22284;SDS011;11311;52.192;20.900;2022-11-14T04:13:39;19.02;;;12.65;;
22284;SDS011;11311;52.192;20.900;2022-11-14T04:16:26;20.60;;;10.90;;
22284;SDS011;11311;52.192;20.900;2022-11-14T04:19:15;23.05;;;14.13;;
22284;SDS011;11311;52.192;20.900;2022-11-14T04:22:02;18.65;;;12.48;;
22284;SDS011;11311;52.192;20.900;2022-11-14T04:24:49;22.95;;;12.48;;
22284;SDS011;11311;52.192;20.900;2022-11-14T04:27:36;25.73;;;15.85;;
22284;SDS011;11311;52.192;20.900;2022-11-14T04:30:23;21.17;;;12.93;;
22284;SDS011;11311;52.192;20.900;2022-11-14T04:33:10;24.60;;;14.73;;
22284;SDS011;11311;52.192;20.900;2022-11-14T04:35:59;14.35;;;9.40;;
22284;SDS011;11311;52.192;20.900;2022-11-14T04:38:45;13.75;;;10.45;;
22284;SDS011;11311;52.192;20.900;2022-11-14T04:41:32;14.88;;;11.50;;
22284;SDS011;11311;52.192;20.900;2022-11-14T04:44:19;16.17;;;10.05;;
22284;SDS011;11311;52.192;20.900;2022-11-14T04:47:06;15.98;;;10.77;;
22284;SDS011;11311;52.192;20.900;2022-11-14T04:49:52;18.20;;;13.38;;
22284;SDS011;11311;52.192;20.900;2022-11-14T04:52:41;22.52;;;14.60;;
22284;SDS011;11311;52.192;20.900;2022-11-14T04:55:27;18.67;;;14.55;;
22284;SDS011;11311;52.192;20.900;2022-11-14T04:58:14;19.33;;;12.27;;
22284;SDS011;11311;52.192;20.900;2022-11-14T05:01:06;12.57;;;10.88;;
22284;SDS011;11311;52.192;20.900;2022-11-14T05:03:54;12.40;;;10.75;;
22284;SDS011;11311;52.192;20.900;2022-11-14T05:06:41;14.02;;;11.13;;
22284;SDS011;11311;52.192;20.900;2022-11-14T05:09:30;11.77;;;9.10;;
22284;SDS011;11311;52.192;20.900;2022-11-14T05:12:17;13.02;;;9.32;;
22284;SDS011;11311;52.192;20.900;2022-11-14T05:15:04;12.48;;;8.05;;
22284;SDS011;11311;52.192;20.900;2022-11-14T05:17:52;9.75;;;7.97;;
22284;SDS011;11311;52.192;20.900;2022-11-14T05:20:39;11.18;;;6.50;;
22284;SDS011;11311;52.192;20.900;2022-11-14T05:23:26;7.82;;;4.85;;
22284;SDS011;11311;52.192;20.900;2022-11-14T05:26:15;12.05;;;9.05;;
22284;SDS011;11311;52.192;20.900;2022-11-14T05:29:03;14.45;;;10.13;;
22284;SDS011;11311;52.192;20.900;2022-11-14T05:31:50;13.23;;;8.43;;
22284;SDS011;11311;52.192;20.900;2022-11-14T05:34:37;13.50;;;10.20;;
22284;SDS011;11311;52.192;20.900;2022-11-14T05:37:24;16.83;;;11.88;;
22284;SDS011;11311;52.192;20.900;2022-11-14T05:40:11;13.82;;;11.05;;
22284;SDS011;11311;52.192;20.900;2022-11-14T05:42:59;15.32;;;12.00;;
22284;SDS011;11311;52.192;20.900;2022-11-14T05:45:46;17.02;;;12.20;;
22284;SDS011;11311;52.192;20.900;2022-11-14T05:48:33;23.27;;;14.85;;
22284;SDS011;11311;52.192;20.900;2022-11-14T05:51:20;19.90;;;16.02;;
22284;SDS011;11311;52.192;20.900;2022-11-14T05:54:07;18.80;;;13.10;;
22284;SDS011;11311;52.192;20.900;2022-11-14T05:56:54;20.50;;;14.82;;
22284;SDS011;11311;52.192;20.900;2022-11-14T05:59:42;23.45;;;9.93;;
22284;SDS011;11311;52.192;20.900;2022-11-14T06:02:30;22.60;;;16.45;;
22284;SDS011;11311;52.192;20.900;2022-11-14T06:05:17;23.05;;;15.30;;
22284;SDS011;11311;52.192;20.900;2022-11-14T06:08:04;20.52;;;15.15;;
22284;SDS011;11311;52.192;20.900;2022-11-14T06:10:51;24.15;;;15.23;;
22284;SDS011;11311;52.192;20.900;2022-11-14T06:13:38;18.23;;;13.18;;
22284;SDS011;11311;52.192;20.900;2022-11-14T06:16:26;22.05;;;14.52;;
22284;SDS011;11311;52.192;20.900;2022-11-14T06:19:13;15.68;;;12.95;;
22284;SDS011;11311;52.192;20.900;2022-11-14T06:22:00;14.75;;;9.30;;
22284;SDS011;11311;52.192;20.900;2022-11-14T06:24:47;15.32;;;12.63;;
22284;SDS011;11311;52.192;20.900;2022-11-14T06:27:34;18.63;;;12.38;;
22284;SDS011;11311;52.192;20.900;2022-11-14T06:30:21;15.07;;;12.00;;
22284;SDS011;11311;52.192;20.900;2022-11-14T06:33:09;16.20;;;13.00;;
22284;SDS011;11311;52.192;20.900;2022-11-14T06:35:56;14.88;;;12.20;;
22284;SDS011;11311;52.192;20.900;2022-11-14T06:38:44;20.20;;;13.63;;
22284;SDS011;11311;52.192;20.900;2022-11-14T06:41:33;17.65;;;12.73;;
22284;SDS011;11311;52.192;20.900;2022-11-14T06:44:19;15.93;;;11.73;;
22284;SDS011;11311;52.192;20.900;2022-11-14T06:47:14;13.57;;;11.40;;
22284;SDS011;11311;52.192;20.900;2022-11-14T06:50:03;15.43;;;11.68;;
22284;SDS011;11311;52.192;20.900;2022-11-14T06:52:51;15.63;;;10.95;;
22284;SDS011;11311;52.192;20.900;2022-11-14T06:55:38;12.85;;;9.57;;
22284;SDS011;11311;52.192;20.900;2022-11-14T06:58:25;14.25;;;10.38;;
22284;SDS011;11311;52.192;20.900;2022-11-14T07:01:14;14.43;;;10.95;;
22284;SDS011;11311;52.192;20.900;2022-11-14T07:04:02;11.73;;;9.75;;
22284;SDS011;11311;52.192;20.900;2022-11-14T07:06:51;11.85;;;8.18;;
22284;SDS011;11311;52.192;20.900;2022-11-14T07:09:38;13.25;;;9.20;;
22284;SDS011;11311;52.192;20.900;2022-11-14T07:12:25;11.75;;;8.70;;
22284;SDS011;11311;52.192;20.900;2022-11-14T07:15:14;15.95;;;10.98;;
22284;SDS011;11311;52.192;20.900;2022-11-14T07:18:01;16.35;;;11.85;;
22284;SDS011;11311;52.192;20.900;2022-11-14T07:20:48;11.30;;;10.02;;
22284;SDS011;11311;52.192;20.900;2022-11-14T07:23:36;13.63;;;9.88;;
22284;SDS011;11311;52.192;20.900;2022-11-14T07:26:24;10.52;;;8.40;;
22284;SDS011;11311;52.192;20.900;2022-11-14T07:29:10;8.30;;;7.28;;
22284;SDS011;11311;52.192;20.900;2022-11-14T07:31:57;4.93;;;4.05;;
22284;SDS011;11311;52.192;20.900;2022-11-14T07:34:44;8.02;;;6.38;;
22284;SDS011;11311;52.192;20.900;2022-11-14T07:37:32;10.65;;;7.07;;
22284;SDS011;11311;52.192;20.900;2022-11-14T07:40:20;5.43;;;4.65;;
22284;SDS011;11311;52.192;20.900;2022-11-14T07:43:07;10.75;;;5.93;;
22284;SDS011;11311;52.192;20.900;2022-11-14T07:45:57;13.90;;;9.27;;
22284;SDS011;11311;52.192;20.900;2022-11-14T07:51:32;12.43;;;7.38;;
22284;SDS011;11311;52.192;20.900;2022-11-14T07:54:18;12.93;;;9.60;;
22284;SDS011;11311;52.192;20.900;2022-11-14T07:57:07;10.63;;;8.43;;
22284;SDS011;11311;52.192;20.900;2022-11-14T07:59:54;11.50;;;10.13;;
22284;SDS011;11311;52.192;20.900;2022-11-14T08:02:40;6.93;;;4.07;;
22284;SDS011;11311;52.192;20.900;2022-11-14T08:05:27;10.57;;;9.18;;
22284;SDS011;11311;52.192;20.900;2022-11-14T08:08:14;8.15;;;4.72;;
22284;SDS011;11311;52.192;20.900;2022-11-14T08:11:01;11.77;;;9.57;;
22284;SDS011;11311;52.192;20.900;2022-11-14T08:13:50;11.38;;;7.43;;
22284;SDS011;11311;52.192;20.900;2022-11-14T08:16:37;11.00;;;7.55;;
22284;SDS011;11311;52.192;20.900;2022-11-14T08:19:23;7.68;;;6.88;;
22284;SDS011;11311;52.192;20.900;2022-11-14T08:22:10;9.38;;;6.80;;
22284;SDS011;11311;52.192;20.900;2022-11-14T08:24:57;11.02;;;8.02;;
22284;SDS011;11311;52.192;20.900;2022-11-14T08:27:44;16.70;;;9.60;;
22284;SDS011;11311;52.192;20.900;2022-11-14T08:30:33;12.30;;;8.65;;
22284;SDS011;11311;52.192;20.900;2022-11-14T08:33:20;6.28;;;5.55;;
22284;SDS011;11311;52.192;20.900;2022-11-14T08:36:08;10.68;;;9.35;;
22284;SDS011;11311;52.192;20.900;2022-11-14T08:38:55;8.90;;;7.78;;
22284;SDS011;11311;52.192;20.900;2022-11-14T08:41:46;12.05;;;9.77;;
22284;SDS011;11311;52.192;20.900;2022-11-14T08:44:33;11.40;;;9.25;;
22284;SDS011;11311;52.192;20.900;2022-11-14T08:47:22;8.43;;;7.63;;
22284;SDS011;11311;52.192;20.900;2022-11-14T08:50:09;12.05;;;10.48;;
22284;SDS011;11311;52.192;20.900;2022-11-14T08:52:56;9.07;;;7.88;;
22284;SDS011;11311;52.192;20.900;2022-11-14T08:55:43;11.02;;;8.63;;
22284;SDS011;11311;52.192;20.900;2022-11-14T08:58:30;8.25;;;7.03;;
22284;SDS011;11311;52.192;20.900;2022-11-14T09:01:18;16.55;;;9.85;;
22284;SDS011;11311;52.192;20.900;2022-11-14T09:04:06;10.38;;;9.25;;
22284;SDS011;11311;52.192;20.900;2022-11-14T09:06:53;9.48;;;7.22;;
22284;SDS011;11311;52.192;20.900;2022-11-14T09:09:41;9.05;;;8.02;;
22284;SDS011;11311;52.192;20.900;2022-11-14T09:12:28;14.25;;;11.82;;
22284;SDS011;11311;52.192;20.900;2022-11-14T09:15:15;13.93;;;11.88;;
22284;SDS011;11311;52.192;20.900;2022-11-14T09:18:02;9.15;;;8.23;;
22284;SDS011;11311;52.192;20.900;2022-11-14T09:20:51;12.30;;;9.20;;
22284;SDS011;11311;52.192;20.900;2022-11-14T09:23:38;8.38;;;6.20;;
22284;SDS011;11311;52.192;20.900;2022-11-14T09:26:24;8.90;;;7.38;;
22284;SDS011;11311;52.192;20.900;2022-11-14T09:29:11;12.38;;;10.77;;
22284;SDS011;11311;52.192;20.900;2022-11-14T09:31:58;7.28;;;6.43;;
22284;SDS011;11311;52.192;20.900;2022-11-14T09:34:45;8.25;;;7.38;;
22284;SDS011;11311;52.192;20.900;2022-11-14T09:37:34;10.13;;;8.88;;
22284;SDS011;11311;52.192;20.900;2022-11-14T09:40:21;14.95;;;8.38;;
22284;SDS011;11311;52.192;20.900;2022-11-14T09:43:12;6.88;;;5.93;;
22284;SDS011;11311;52.192;20.900;2022-11-14T09:46:09;8.38;;;7.57;;
22284;SDS011;11311;52.192;20.900;2022-11-14T09:49:01;7.40;;;5.45;;
22284;SDS011;11311;52.192;20.900;2022-11-14T09:51:49;10.70;;;6.93;;
22284;SDS011;11311;52.192;20.900;2022-11-14T09:54:43;8.95;;;8.05;;
22284;SDS011;11311;52.192;20.900;2022-11-14T09:57:32;8.88;;;6.65;;
22284;SDS011;11311;52.192;20.900;2022-11-14T10:00:20;9.40;;;6.25;;
22284;SDS011;11311;52.192;20.900;2022-11-14T10:03:11;10.10;;;8.35;;
22284;SDS011;11311;52.192;20.900;2022-11-14T10:06:06;12.75;;;11.27;;
22284;SDS011;11311;52.192;20.900;2022-11-14T10:09:13;13.30;;;11.50;;
22284;SDS011;11311;52.192;20.900;2022-11-14T10:12:19;15.27;;;13.57;;
22284;SDS011;11311;52.192;20.900;2022-11-14T10:15:10;12.32;;;9.45;;
22284;SDS011;11311;52.192;20.900;2022-11-14T10:21:09;15.55;;;9.98;;
22284;SDS011;11311;52.192;20.900;2022-11-14T10:24:07;18.13;;;10.07;;
22284;SDS011;11311;52.192;20.900;2022-11-14T10:27:03;12.73;;;9.30;;
22284;SDS011;11311;52.192;20.900;2022-11-14T10:29:56;11.48;;;9.45;;
22284;SDS011;11311;52.192;20.900;2022-11-14T10:32:55;11.65;;;8.85;;
22284;SDS011;11311;52.192;20.900;2022-11-14T10:35:48;12.45;;;7.85;;
22284;SDS011;11311;52.192;20.900;2022-11-14T10:38:40;14.02;;;9.95;;
22284;SDS011;11311;52.192;20.900;2022-11-14T10:41:30;14.45;;;8.98;;
22284;SDS011;11311;52.192;20.900;2022-11-14T10:44:37;15.93;;;10.68;;
22284;SDS011;11311;52.192;20.900;2022-11-14T10:47:31;14.07;;;8.25;;
22284;SDS011;11311;52.192;20.900;2022-11-14T10:50:21;19.30;;;12.38;;
22284;SDS011;11311;52.192;20.900;2022-11-14T10:53:12;19.10;;;13.02;;
22284;SDS011;11311;52.192;20.900;2022-11-14T10:56:04;23.27;;;12.52;;
22284;SDS011;11311;52.192;20.900;2022-11-14T10:58:51;25.08;;;14.07;;
22284;SDS011;11311;52.192;20.900;2022-11-14T11:01:39;15.77;;;11.50;;
22284;SDS011;11311;52.192;20.900;2022-11-14T11:04:29;17.85;;;11.02;;
22284;SDS011;11311;52.192;20.900;2022-11-14T11:07:18;5.05;;;4.55;;
22284;SDS011;11311;52.192;20.900;2022-11-14T11:10:25;9.60;;;7.82;;
22284;SDS011;11311;52.192;20.900;2022-11-14T11:13:31;6.63;;;4.57;;
22284;SDS011;11311;52.192;20.900;2022-11-14T11:16:20;11.23;;;7.65;;
22284;SDS011;11311;52.192;20.900;2022-11-14T11:19:17;4.80;;;4.32;;
22284;SDS011;11311;52.192;20.900;2022-11-14T11:22:24;7.95;;;6.65;;
22284;SDS011;11311;52.192;20.900;2022-11-14T11:25:21;6.88;;;4.63;;
22284;SDS011;11311;52.192;20.900;2022-11-14T11:28:11;9.95;;;8.07;;
22284;SDS011;11311;52.192;20.900;2022-11-14T11:30:59;10.40;;;8.13;;
22284;SDS011;11311;52.192;20.900;2022-11-14T11:33:47;7.60;;;6.03;;
22284;SDS011;11311;52.192;20.900;2022-11-14T11:36:35;8.00;;;6.30;;
22284;SDS011;11311;52.192;20.900;2022-11-14T11:39:28;7.13;;;6.43;;
22284;SDS011;11311;52.192;20.900;2022-11-14T11:42:16;7.10;;;6.32;;
22284;SDS011;11311;52.192;20.900;2022-11-14T11:45:09;8.55;;;6.03;;
22284;SDS011;11311;52.192;20.900;2022-11-14T11:48:04;7.10;;;5.45;;
22284;SDS011;11311;52.192;20.900;2022-11-14T11:50:56;8.57;;;6.20;;
22284;SDS011;11311;52.192;20.900;2022-11-14T11:53:43;7.15;;;5.13;;
22284;SDS011;11311;52.192;20.900;2022-11-14T11:56:44;7.57;;;6.60;;
22284;SDS011;11311;52.192;20.900;2022-11-14T11:59:34;7.57;;;5.95;;
22284;SDS011;11311;52.192;20.900;2022-11-14T12:02:24;9.00;;;6.45;;
22284;SDS011;11311;52.192;20.900;2022-11-14T12:05:12;8.88;;;7.97;;
22284;SDS011;11311;52.192;20.900;2022-11-14T12:08:01;10.35;;;9.25;;
22284;SDS011;11311;52.192;20.900;2022-11-14T12:10:52;10.95;;;9.38;;
22284;SDS011;11311;52.192;20.900;2022-11-14T12:13:44;15.05;;;11.15;;
22284;SDS011;11311;52.192;20.900;2022-11-14T12:16:57;21.55;;;16.55;;
22284;SDS011;11311;52.192;20.900;2022-11-14T12:20:02;32.88;;;18.60;;
22284;SDS011;11311;52.192;20.900;2022-11-14T12:23:05;30.05;;;21.63;;
22284;SDS011;11311;52.192;20.900;2022-11-14T12:26:15;33.33;;;22.38;;
22284;SDS011;11311;52.192;20.900;2022-11-14T12:29:19;30.98;;;20.45;;
22284;SDS011;11311;52.192;20.900;2022-11-14T12:32:27;35.15;;;22.17;;
22284;SDS011;11311;52.192;20.900;2022-11-14T12:35:17;25.40;;;16.10;;
22284;SDS011;11311;52.192;20.900;2022-11-14T12:38:12;27.73;;;13.77;;
22284;SDS011;11311;52.192;20.900;2022-11-14T12:41:01;41.42;;;18.20;;
22284;SDS011;11311;52.192;20.900;2022-11-14T12:43:49;25.73;;;16.45;;
22284;SDS011;11311;52.192;20.900;2022-11-14T12:59:48;27.58;;;18.92;;
22284;SDS011;11311;52.192;20.900;2022-11-14T13:02:47;25.85;;;15.30;;
22284;SDS011;11311;52.192;20.900;2022-11-14T13:05:53;30.90;;;20.60;;
22284;SDS011;11311;52.192;20.900;2022-11-14T13:08:53;41.50;;;22.00;;
22284;SDS011;11311;52.192;20.900;2022-11-14T13:11:47;34.70;;;16.05;;
22284;SDS011;11311;52.192;20.900;2022-11-14T13:14:52;40.15;;;23.77;;
22284;SDS011;11311;52.192;20.900;2022-11-14T13:18:03;31.58;;;17.83;;
22284;SDS011;11311;52.192;20.900;2022-11-14T13:21:16;29.35;;;16.25;;
22284;SDS011;11311;52.192;20.900;2022-11-14T13:27:47;36.38;;;21.13;;
22284;SDS011;11311;52.192;20.900;2022-11-14T13:31:05;50.13;;;30.15;;
22284;SDS011;11311;52.192;20.900;2022-11-14T13:37:09;38.08;;;22.35;;
22284;SDS011;11311;52.192;20.900;2022-11-14T13:40:06;42.60;;;27.27;;
22284;SDS011;11311;52.192;20.900;2022-11-14T13:42:58;41.13;;;24.60;;
22284;SDS011;11311;52.192;20.900;2022-11-14T13:45:56;31.70;;;21.60;;
22284;SDS011;11311;52.192;20.900;2022-11-14T13:48:56;37.72;;;25.90;;
22284;SDS011;11311;52.192;20.900;2022-11-14T13:51:50;35.65;;;23.60;;
22284;SDS011;11311;52.192;20.900;2022-11-14T13:54:45;31.67;;;22.30;;
22284;SDS011;11311;52.192;20.900;2022-11-14T13:57:38;23.20;;;16.42;;
22284;SDS011;11311;52.192;20.900;2022-11-14T14:00:37;29.52;;;21.40;;
22284;SDS011;11311;52.192;20.900;2022-11-14T14:03:35;21.88;;;13.30;;
22284;SDS011;11311;52.192;20.900;2022-11-14T14:06:30;29.92;;;23.90;;
22284;SDS011;11311;52.192;20.900;2022-11-14T14:09:26;28.08;;;19.42;;
22284;SDS011;11311;52.192;20.900;2022-11-14T14:12:23;25.17;;;14.52;;
22284;SDS011;11311;52.192;20.900;2022-11-14T14:15:26;22.15;;;15.45;;
22284;SDS011;11311;52.192;20.900;2022-11-14T14:21:09;16.93;;;10.97;;
22284;SDS011;11311;52.192;20.900;2022-11-14T14:24:03;25.45;;;17.67;;
22284;SDS011;11311;52.192;20.900;2022-11-14T14:26:59;23.42;;;17.65;;
22284;SDS011;11311;52.192;20.900;2022-11-14T14:29:53;21.92;;;15.68;;
22284;SDS011;11311;52.192;20.900;2022-11-14T14:35:56;26.77;;;17.38;;
22284;SDS011;11311;52.192;20.900;2022-11-14T14:38:43;28.35;;;22.05;;
22284;SDS011;11311;52.192;20.900;2022-11-14T14:41:31;23.17;;;16.45;;
22284;SDS011;11311;52.192;20.900;2022-11-14T14:44:20;20.05;;;16.80;;
22284;SDS011;11311;52.192;20.900;2022-11-14T14:47:22;15.50;;;10.45;;
22284;SDS011;11311;52.192;20.900;2022-11-14T14:50:18;14.73;;;10.50;;
22284;SDS011;11311;52.192;20.900;2022-11-14T14:53:06;15.43;;;11.65;;
22284;SDS011;11311;52.192;20.900;2022-11-14T14:56:04;19.58;;;9.63;;
22284;SDS011;11311;52.192;20.900;2022-11-14T14:58:53;26.27;;;14.90;;
22284;SDS011;11311;52.192;20.900;2022-11-14T15:01:40;22.42;;;15.07;;
22284;SDS011;11311;52.192;20.900;2022-11-14T15:04:28;15.30;;;12.35;;
22284;SDS011;11311;52.192;20.900;2022-11-14T15:07:17;24.98;;;18.60;;
22284;SDS011;11311;52.192;20.900;2022-11-14T15:10:06;25.13;;;19.65;;
22284;SDS011;11311;52.192;20.900;2022-11-14T15:12:54;25.20;;;16.17;;
22284;SDS011;11311;52.192;20.900;2022-11-14T15:15:42;26.42;;;20.80;;
22284;SDS011;11311;52.192;20.900;2022-11-14T15:18:30;32.25;;;21.55;;
22284;SDS011;11311;52.192;20.900;2022-11-14T15:21:24;25.65;;;20.25;;
22284;SDS011;11311;52.192;20.900;2022-11-14T15:24:13;28.90;;;18.52;;
22284;SDS011;11311;52.192;20.900;2022-11-14T15:27:02;21.60;;;15.27;;
22284;SDS011;11311;52.192;20.900;2022-11-14T15:29:51;24.48;;;14.18;;
22284;SDS011;11311;52.192;20.900;2022-11-14T15:32:45;23.38;;;19.58;;
22284;SDS011;11311;52.192;20.900;2022-11-14T15:35:34;25.58;;;16.48;;
22284;SDS011;11311;52.192;20.900;2022-11-14T15:38:24;30.55;;;18.58;;
22284;SDS011;11311;52.192;20.900;2022-11-14T15:41:28;17.75;;;11.95;;
22284;SDS011;11311;52.192;20.900;2022-11-14T15:44:28;22.25;;;15.65;;
22284;SDS011;11311;52.192;20.900;2022-11-14T15:47:20;16.92;;;12.50;;
22284;SDS011;11311;52.192;20.900;2022-11-14T15:53:16;29.50;;;21.45;;
22284;SDS011;11311;52.192;20.900;2022-11-14T15:56:11;29.15;;;21.75;;
22284;SDS011;11311;52.192;20.900;2022-11-14T15:58:59;28.38;;;21.83;;
22284;SDS011;11311;52.192;20.900;2022-11-14T16:01:47;24.20;;;16.08;;
22284;SDS011;11311;52.192;20.900;2022-11-14T16:04:37;22.65;;;14.30;;
22284;SDS011;11311;52.192;20.900;2022-11-14T16:07:31;19.88;;;15.90;;
22284;SDS011;11311;52.192;20.900;2022-11-14T16:13:10;35.65;;;23.20;;
22284;SDS011;11311;52.192;20.900;2022-11-14T16:15:58;23.95;;;13.55;;
22284;SDS011;11311;52.192;20.900;2022-11-14T16:18:45;26.08;;;16.00;;
22284;SDS011;11311;52.192;20.900;2022-11-14T16:21:32;18.60;;;14.52;;
22284;SDS011;11311;52.192;20.900;2022-11-14T16:24:21;24.40;;;18.85;;
22284;SDS011;11311;52.192;20.900;2022-11-14T16:27:08;28.90;;;18.17;;
22284;SDS011;11311;52.192;20.900;2022-11-14T16:29:57;25.58;;;13.88;;
22284;SDS011;11311;52.192;20.900;2022-11-14T16:32:44;24.60;;;17.25;;
22284;SDS011;11311;52.192;20.900;2022-11-14T16:35:32;19.88;;;15.73;;
22284;SDS011;11311;52.192;20.900;2022-11-14T16:38:19;27.20;;;18.70;;
22284;SDS011;11311;52.192;20.900;2022-11-14T16:41:06;21.38;;;17.67;;
22284;SDS011;11311;52.192;20.900;2022-11-14T16:43:53;23.88;;;15.80;;
22284;SDS011;11311;52.192;20.900;2022-11-14T16:46:42;24.70;;;18.92;;
22284;SDS011;11311;52.192;20.900;2022-11-14T16:49:30;23.48;;;18.92;;
22284;SDS011;11311;52.192;20.900;2022-11-14T16:52:17;23.45;;;17.63;;
22284;SDS011;11311;52.192;20.900;2022-11-14T16:55:05;33.05;;;16.73;;
22284;SDS011;11311;52.192;20.900;2022-11-14T16:57:52;33.80;;;21.20;;
22284;SDS011;11311;52.192;20.900;2022-11-14T17:00:41;28.92;;;21.75;;
22284;SDS011;11311;52.192;20.900;2022-11-14T17:03:31;27.65;;;15.32;;
22284;SDS011;11311;52.192;20.900;2022-11-14T17:06:18;25.25;;;18.45;;